Latest Weather Observations for Melville Water

IDW60801

Issued at 8:53 am WST Tuesday 26 May 2020 (issued every 10 minutes, with the page automatically refreshed every 10 minutes)

About weather observations | Map of weather stations | Latest weather observations for WA | Other Formats
Station Details ID: 009091 Name: INNER DOLPHIN PYLON Lat: -31.99 Lon: 115.83 Height: 0.0 m
Data from the previous 72 hours. | See also: Recent months at Melville Water
Date/Time
WST
Temp
°C
App
Temp
°C
Dew
Point
°C
Rel
Hum
%
Delta-T
°C
Wind Press
QNH
hPa
Press
MSL
hPa
Rain since
9am
mm
Dir  Spd
km/h
Gust
km/h
Spd
kts
Gust
kts
26/08:30am - - - - - NE 6 7 3 4 - - -
26/08:00am - - - - - NE 11 13 6 7 - - -
26/07:30am - - - - - NE 4 9 2 5 - - -
26/07:00am - - - - - NNE 4 6 2 3 - - -
26/06:30am - - - - - CALM 0 4 0 2 - - -
26/06:00am - - - - - NNE 4 7 2 4 - - -
26/05:30am - - - - - ENE 7 11 4 6 - - -
26/05:00am - - - - - ENE 6 9 3 5 - - -
26/04:30am - - - - - NE 11 13 6 7 - - -
26/04:00am - - - - - NE 2 6 1 3 - - -
26/03:30am - - - - - ENE 9 11 5 6 - - -
26/03:00am - - - - - E 6 9 3 5 - - -
26/02:30am - - - - - ENE 2 7 1 4 - - -
26/02:00am - - - - - E 11 17 6 9 - - -
26/01:30am - - - - - SSE 7 13 4 7 - - -
26/01:00am - - - - - SW 30 43 16 23 - - -
26/12:48am - - - - - SW 28 50 15 27 - - -
26/12:30am - - - - - SW 17 30 9 16 - - -
26/12:00am - - - - - ENE 9 15 5 8 - - -
 
Date/Time
WST
Temp
°C
App
Temp
°C
Dew
Point
°C
Rel
Hum
%
Delta-T
°C
Wind Press
QNH
hPa
Press
MSL
hPa
Rain since
9am
mm
Dir  Spd
km/h
Gust
km/h
Spd
kts
Gust
kts
25/11:30pm - - - - - E 6 7 3 4 - - -
25/11:00pm - - - - - ESE 9 13 5 7 - - -
25/10:30pm - - - - - SE 17 28 9 15 - - -
25/10:00pm - - - - - SSW 24 33 13 18 - - -
25/09:30pm - - - - - SSW 33 43 18 23 - - -
25/09:00pm - - - - - SSW 33 44 18 24 - - -
25/08:51pm - - - - - SSW 28 46 15 25 - - -
25/08:30pm - - - - - SSW 30 37 16 20 - - -
25/08:00pm - - - - - SSW 33 43 18 23 - - -
25/07:30pm - - - - - SW 32 41 17 22 - - -
25/07:00pm - - - - - SSW 39 48 21 26 - - -
25/06:30pm - - - - - SW 35 46 19 25 - - -
25/06:00pm - - - - - SSW 30 41 16 22 - - -
25/05:36pm - - - - - SSW 30 50 16 27 - - -
25/05:30pm - - - - - SSW 28 35 15 19 - - -
25/05:00pm - - - - - SSW 33 46 18 25 - - -
25/04:45pm - - - - - SW 37 57 20 31 - - -
25/04:30pm - - - - - WSW 33 43 18 23 - - -
25/04:00pm - - - - - SW 41 52 22 28 - - -
25/03:44pm - - - - - WSW 32 48 17 26 - - -
25/03:38pm - - - - - SW 39 54 21 29 - - -
25/03:30pm - - - - - SW 41 56 22 30 - - -
25/03:00pm - - - - - WSW 33 52 18 28 - - -
25/02:35pm - - - - - SW 39 57 21 31 - - -
25/02:30pm - - - - - SW 46 61 25 33 - - -
25/02:00pm - - - - - WSW 39 54 21 29 - - -
25/01:30pm - - - - - WSW 35 50 19 27 - - -
25/01:03pm - - - - - WSW 33 52 18 28 - - -
25/01:00pm - - - - - WSW 33 44 18 24 - - -
25/12:30pm - - - - - WSW 39 61 21 33 - - -
25/12:28pm - - - - - WSW 37 61 20 33 - - -
25/12:00pm - - - - - WSW 33 46 18 25 - - -
25/11:45am - - - - - W 28 46 15 25 - - -
25/11:30am - - - - - WSW 32 44 17 24 - - -
25/11:19am - - - - - W 28 46 15 25 - - -
25/11:00am - - - - - WSW 35 52 19 28 - - -
25/10:30am - - - - - WSW 39 57 21 31 - - -
25/10:21am - - - - - WSW 37 57 20 31 - - -
25/10:00am - - - - - WSW 37 52 20 28 - - -
25/09:30am - - - - - WSW 39 57 21 31 - - -
25/09:07am - - - - - WSW 37 67 20 36 - - -
25/09:00am - - - - - WSW 37 48 20 26 - - -
25/08:42am - - - - - WSW 35 59 19 32 - - -
25/08:30am - - - - - WSW 35 46 19 25 - - -
25/08:00am - - - - - W 32 50 17 27 - - -
25/07:44am - - - - - WSW 37 59 20 32 - - -
25/07:30am - - - - - W 30 44 16 24 - - -
25/07:07am - - - - - WSW 32 50 17 27 - - -
25/07:00am - - - - - WSW 32 44 17 24 - - -
25/06:45am - - - - - WSW 32 54 17 29 - - -
25/06:30am - - - - - WSW 35 44 19 24 - - -
25/06:00am - - - - - WSW 33 44 18 24 - - -
25/05:37am - - - - - WSW 37 56 20 30 - - -
25/05:30am - - - - - WSW 37 52 20 28 - - -
25/05:15am - - - - - WSW 37 56 20 30 - - -
25/05:00am - - - - - WSW 37 52 20 28 - - -
25/04:30am - - - - - W 39 61 21 33 - - -
25/04:05am - - - - - W 37 65 20 35 - - -
25/04:00am - - - - - W 39 54 21 29 - - -
25/03:30am - - - - - WSW 35 48 19 26 - - -
25/03:00am - - - - - W 37 65 20 35 - - -
25/02:54am - - - - - W 39 65 21 35 - - -
25/02:52am - - - - - W 37 65 20 35 - - -
25/02:44am - - - - - WNW 30 48 16 26 - - -
25/02:30am - - - - - WNW 30 46 16 25 - - -
25/02:00am - - - - - WNW 32 46 17 25 - - -
25/01:30am - - - - - WNW 35 54 19 29 - - -
25/01:13am - - - - - NW 32 56 17 30 - - -
25/01:00am - - - - - NW 30 43 16 23 - - -
25/12:30am - - - - - NW 39 69 21 37 - - -
25/12:00am - - - - - NW 35 54 19 29 - - -
 
Date/Time
WST
Temp
°C
App
Temp
°C
Dew
Point
°C
Rel
Hum
%
Delta-T
°C
Wind Press
QNH
hPa
Press
MSL
hPa
Rain since
9am
mm
Dir  Spd
km/h
Gust
km/h
Spd
kts
Gust
kts
24/11:52pm - - - - - NW 30 54 16 29 - - -
24/11:30pm - - - - - N 19 32 10 17 - - -
24/11:00pm - - - - - N 24 32 13 17 - - -
24/10:30pm - - - - - N 30 39 16 21 - - -
24/10:00pm - - - - - N 35 48 19 26 - - -
24/09:30pm - - - - - N 32 41 17 22 - - -
24/09:00pm - - - - - N 32 46 17 25 - - -
24/08:30pm - - - - - N 35 48 19 26 - - -
24/08:00pm - - - - - NNE 41 54 22 29 - - -
24/07:30pm - - - - - N 37 56 20 30 - - -
24/07:21pm - - - - - NNE 35 54 19 29 - - -
24/07:00pm - - - - - NNE 32 39 17 21 - - -
24/06:30pm - - - - - NNE 32 41 17 22 - - -
24/06:00pm - - - - - NNE 30 39 16 21 - - -
24/05:30pm - - - - - NNE 32 44 17 24 - - -
24/05:00pm - - - - - NNE 32 43 17 23 - - -
24/04:30pm - - - - - N 24 32 13 17 - - -
24/04:00pm - - - - - NNE 37 52 20 28 - - -
24/03:33pm - - - - - NNE 37 78 20 42 - - -
24/03:30pm - - - - - NNE 33 52 18 28 - - -
24/03:23pm - - - - - NE 33 52 18 28 - - -
24/03:00pm - - - - - NE 35 44 19 24 - - -
24/02:30pm - - - - - NE 35 46 19 25 - - -
24/02:00pm - - - - - NE 32 41 17 22 - - -
24/01:30pm - - - - - NNE 28 44 15 24 - - -
24/01:00pm - - - - - NNE 33 48 18 26 - - -
24/12:45pm - - - - - NNE 35 54 19 29 - - -
24/12:30pm - - - - - NNE 33 48 18 26 - - -
24/12:00pm - - - - - NNE 30 52 16 28 - - -
24/11:30am - - - - - NNE 33 52 18 28 - - -
24/11:25am - - - - - NNE 32 52 17 28 - - -
24/11:00am - - - - - NE 33 44 18 24 - - -
24/10:30am - - - - - NE 30 43 16 23 - - -
24/10:00am - - - - - ENE 26 37 14 20 - - -
24/09:30am - - - - - ENE 26 37 14 20 - - -
24/09:00am - - - - - ENE 28 35 15 19 - - -
24/08:30am - - - - - ENE 30 39 16 21 - - -
24/08:00am - - - - - ENE 30 37 16 20 - - -
24/07:30am - - - - - ENE 24 32 13 17 - - -
24/07:00am - - - - - NE 26 33 14 18 - - -
24/06:30am - - - - - NE 28 39 15 21 - - -
24/06:00am - - - - - NE 26 35 14 19 - - -
24/05:30am - - - - - NE 28 37 15 20 - - -
24/05:00am - - - - - NE 26 33 14 18 - - -
24/04:30am - - - - - NE 28 35 15 19 - - -
24/04:00am - - - - - NE 26 32 14 17 - - -
24/03:30am - - - - - NE 28 37 15 20 - - -
24/03:00am - - - - - ENE 28 37 15 20 - - -
24/02:30am - - - - - NE 26 35 14 19 - - -
24/02:00am - - - - - NE 28 39 15 21 - - -
24/01:30am - - - - - NE 24 33 13 18 - - -
24/01:00am - - - - - NE 24 32 13 17 - - -
24/12:30am - - - - - NE 22 32 12 17 - - -
24/12:00am - - - - - NE 26 33 14 18 - - -
 
Date/Time
WST
Temp
°C
App
Temp
°C
Dew
Point
°C
Rel
Hum
%
Delta-T
°C
Wind Press
QNH
hPa
Press
MSL
hPa
Rain since
9am
mm
Dir  Spd
km/h
Gust
km/h
Spd
kts
Gust
kts
23/11:30pm - - - - - NE 20 26 11 14 - - -
23/11:00pm - - - - - NE 20 24 11 13 - - -
23/10:30pm - - - - - ENE 19 24 10 13 - - -
23/10:00pm - - - - - ENE 17 22 9 12 - - -
23/09:30pm - - - - - ENE 17 20 9 11 - - -
23/09:00pm - - - - - ENE 15 19 8 10 - - -
23/08:30pm - - - - - ENE 13 15 7 8 - - -
23/08:00pm - - - - - ENE 13 15 7 8 - - -
23/07:30pm - - - - - ENE 13 15 7 8 - - -
23/07:00pm - - - - - ENE 7 9 4 5 - - -
23/06:30pm - - - - - ENE 2 6 1 3 - - -
23/06:00pm - - - - - CALM 0 0 0 0 - - -
23/05:30pm - - - - - E 7 9 4 5 - - -
23/05:00pm - - - - - ENE 9 11 5 6 - - -
23/04:30pm - - - - - ENE 11 15 6 8 - - -
23/04:00pm - - - - - ENE 17 24 9 13 - - -
23/03:30pm - - - - - NE 9 15 5 8 - - -
23/03:00pm - - - - - ENE 17 26 9 14 - - -
23/02:30pm - - - - - NE 13 17 7 9 - - -
23/02:00pm - - - - - ENE 17 22 9 12 - - -
23/01:30pm - - - - - NE 15 22 8 12 - - -
23/01:00pm - - - - - NE 15 19 8 10 - - -
23/12:30pm - - - - - NE 15 22 8 12 - - -
23/12:00pm - - - - - NE 13 20 7 11 - - -
23/11:30am - - - - - NE 15 22 8 12 - - -
23/11:00am - - - - - NE 15 22 8 12 - - -
23/10:30am - - - - - NE 17 22 9 12 - - -
23/10:00am - - - - - NE 19 22 10 12 - - -
23/09:30am - - - - - NE 20 26 11 14 - - -
23/09:00am - - - - - NE 22 28 12 15 - - -

Other formats

Comma delimited format used in spreadsheet applications
http://www.bom.gov.au/fwo/IDW60801/IDW60801.95620.axf

JavaScript Object Notation format (JSON) in row-major order
http://www.bom.gov.au/fwo/IDW60801/IDW60801.95620.json

Data quality

Most of these data are generated automatically and are frequently updated. Quality checks on data are not normally performed. It is possible for incorrect values to appear. Refer to information at About Latest Weather Observations and please check the disclaimer before using these data.